• Join FlightAware (Why Join?)
  • Login
  • US Flag 
03:41AM EDT


 

Airport Tracker/Info


-or-


 

Live Flight TrackerFlight Track Log ✈ AWE1092 ✈ 24-May-2013 ✈ KPHL - KRDU

Flight Track Log - Related Links

Times and Time Zones

All times are in EDT time to prevent confusion due to time zone crossing. See the AWE1092 flight status page for this flight to view local times or setup timezone preferences in your user account.

Time Position Orientation Groundspeed Altitude Reporting Facility
EDT Latitude Longitude Course Direction KTS MPH feet Rate Location/Type
09:51AM 39.8000 -75.3333 210° Southwest 232 267 3,400  Level Philadelphia TRACON
09:52AM 39.5998 -75.3000 180° South  Level FlightAware Approximate
09:53AM 39.5070 -75.3153 189° South  Level FlightAware Approximate
09:53AM 39.6819 -75.3461 185° South 252 290 8,400  Level Washington Center
09:54AM 39.4150 -75.3354 185° South  Level FlightAware Approximate
09:54AM 39.6050 -75.3383 176° South 264 304 9,200  Level Washington Center
09:55AM 39.3216 -75.3457 185° South  Level FlightAware Approximate
09:55AM 39.5258 -75.3306 176° South 276 318 10,900  Level Washington Center
09:56AM 39.4467 -75.3389 185° South 288 331 13,700 1,980 Climbing Washington Center
09:57AM 39.3611 -75.3528 187° South 293 337 14,900 1,080 Climbing Washington Center
09:58AM 39.2694 -75.3717 189° South 316 364 15,900 840 Climbing Washington Center
09:59AM 39.1736 -75.3908 189° South 335 386 16,700 780 Climbing Washington Center
10:00AM 39.0800 -75.4017 185° South 340 391 17,500 1,260 Climbing Washington Center
10:01AM 38.9861 -75.4181 188° South 345 397 19,200 1,980 Climbing Washington Center
10:02AM 38.8903 -75.4289 185° South 350 403 21,500 1,920 Climbing Washington Center
10:03AM 38.8006 -75.4450 188° South 342 394 23,100 1,320 Climbing Washington Center
10:04AM 38.7131 -75.4561 186° South 332 382 24,200 1,080 Climbing Washington Center
10:05AM 38.6233 -75.4694 187° South 332 382 25,300 600 Climbing Washington Center
10:06AM 38.5256 -75.4828 186° South 339 390 25,500 300 Climbing Washington Center
10:07AM 38.4233 -75.4989 187° South 363 418 25,900 240 Climbing Washington Center
10:08AM 38.3233 -75.5361 196° South 371 427 26,000  Climbing Washington Center
10:09AM 38.2211 -75.6233 214° Southwest 376 433 26,000  Level Washington Center
10:10AM 38.1314 -75.7025 215° Southwest 396 456 26,000  Level Washington Center
10:11AM 38.0458 -75.7842 217° Southwest 402 463 26,000  Level Washington Center
10:12AM 37.9558 -75.8656 215° Southwest 402 463 26,000  Level Washington Center
10:13AM 37.8661 -75.9522 217° Southwest 402 463 26,000  Level Washington Center
10:14AM 37.7739 -76.0331 215° Southwest 402 463 26,000  Level Washington Center
10:15AM 37.6861 -76.1192 218° Southwest 402 463 26,000  Level Washington Center
10:16AM 37.5919 -76.1972 213° Southwest 407 468 26,000  Level Washington Center
10:17AM 37.5017 -76.2803 216° Southwest 407 468 26,000 -60 Level Washington Center
10:18AM 37.4117 -76.3631 216° Southwest 407 468 25,900 -660 Descending Washington Center
10:19AM 37.3214 -76.4406 214° Southwest 407 468 24,700 -900 Descending Washington Center
10:20AM 37.2372 -76.5283 220° Southwest 402 463 24,100 -360 Descending Washington Center
10:21AM 37.1717 -76.6344 232° Southwest 392 451 24,000 -780 Descending Washington Center
10:22AM 37.1061 -76.7353 231° Southwest 387 445 22,600 -1,560 Descending Washington Center
10:23AM 37.0425 -76.8331 231° Southwest 373 429 21,000 -1,200 Descending Washington Center
10:24AM 36.9811 -76.9336 233° Southwest 373 429 20,200 -540 Descending Washington Center
10:25AM 36.9172 -77.0286 230° Southwest 373 429 20,000 -120 Descending Washington Center
10:26AM 36.8578 -77.1233 232° Southwest 368 423 20,000 -1,200 Level Washington Center
10:27AM 36.7961 -77.2131 229° Southwest 358 412 17,700 -1,860 Descending Washington Center
10:28AM 36.7383 -77.3025 231° Southwest 347 399 16,300 -960 Descending Washington Center
10:29AM 36.6808 -77.3944 232° Southwest 341 392 15,800 -600 Descending Washington Center
10:30AM 36.6253 -77.4786 231° Southwest 341 392 15,200 -600 Descending Washington Center
10:31AM 36.5717 -77.5600 231° Southwest 336 387 14,600 -660 Descending Washington Center
10:32AM 36.5225 -77.6364 231° Southwest 311 358 14,000 -600 Descending Washington Center
10:33AM 36.4753 -77.7100 231° Southwest 290 334 13,500 -600 Descending Washington Center
10:34AM 36.4239 -77.7808 228° Southwest 284 327 12,900 -600 Descending Washington Center
10:35AM 36.3725 -77.8619 232° Southwest 284 327 12,300 -660 Descending Washington Center
10:36AM 36.3314 -77.9306 233° Southwest 308 354 11,800 -600 Descending Washington Center
10:36AM 36.3078 -77.9658 230° Southwest 297 342 11,600 -540 Descending Washington Center
10:37AM 36.2714 -78.0189 230° Southwest 295 339 11,200 -600 Descending Washington Center
10:37AM 36.2519 -78.0442 226° Southwest 276 318 11,000 -600 Descending Washington Center
10:38AM 36.2239 -78.0919 234° Southwest 295 339 10,600 -600 Descending Washington Center
10:39AM 36.1742 -78.1678 231° Southwest 295 339 10,000 -1,020 Descending Washington Center
10:40AM 36.1331 -78.2436 236° Southwest 280 322 8,600 -1,440 Descending Washington Center
10:40AM 36.1242 -78.2664 244° Southwest 265 305 8,200 -1,380 Descending Washington Center
10:41AM 36.1061 -78.3275 250° West 275 316 7,300 -1,140 Descending Washington Center
10:41AM 36.0992 -78.3503 249° West 267 307 7,100 -900 Descending Washington Center
10:42AM 36.0833 -78.4089 252° West 276 318 6,400 -1,020 Descending Washington Center
10:42AM 36.0742 -78.4369 248° West 271 312 6,100 -1,380 Descending Washington Center
10:43AM 36.0603 -78.4956 254° West 276 318 5,000 -1,620 Descending Washington Center
10:43AM 36.0492 -78.5258 246° West 269 310 4,500 -1,320 Descending Washington Center
10:44AM 36.0394 -78.5794 257° West 271 312 3,700 -1,140 Descending Washington Center
10:44AM 36.0222 -78.6044 230° Southwest 255 293 3,400 -720 Descending Washington Center
10:45AM 35.9981 -78.6497 237° Southwest 259 298 3,000 -540 Descending Washington Center